createdAt,value
2023-02-07T00:04:08.204Z,101894.38
2023-02-07T00:18:30.366Z,101899.66
2023-02-07T00:21:11.792Z,101889.25
2023-02-07T00:23:44.790Z,101911.03
2023-02-07T00:26:30.714Z,101910.13
2023-02-07T00:32:09.354Z,101906.69
2023-02-07T00:49:58.867Z,101900.66
2023-02-07T00:58:34.703Z,101893.66
2023-02-07T01:01:09.333Z,101901.50
2023-02-07T01:06:48.394Z,101897.06
2023-02-07T01:09:32.824Z,101889.31
2023-02-07T01:15:28.671Z,101875.38
2023-02-07T01:18:52.076Z,101887.53
2023-02-07T01:21:27.509Z,101851.03
2023-02-07T01:24:36.259Z,101856.19
2023-02-07T01:27:15.287Z,101845.81
2023-02-07T01:32:49.878Z,101851.03
2023-02-07T01:35:46.847Z,101842.34
2023-02-07T01:38:21.352Z,101844.06
2023-02-07T01:40:51.246Z,101853.66
2023-02-07T01:43:36.639Z,101840.63
2023-02-07T01:46:19.597Z,101831.00
2023-02-07T01:55:14.310Z,101831.06
2023-02-07T01:57:54.109Z,101841.50
2023-02-07T02:00:24.887Z,101826.72
2023-02-07T02:02:57.455Z,101838.00
2023-02-07T02:05:40.674Z,101845.00
2023-02-07T02:08:15.518Z,101847.59
2023-02-07T02:11:14.037Z,101861.50
2023-02-07T02:13:51.786Z,101851.09
2023-02-07T02:20:26.687Z,101880.66
2023-02-07T02:26:55.163Z,101880.66
2023-02-07T02:29:53.073Z,101872.81
2023-02-07T02:33:01.687Z,101865.81
2023-02-07T02:35:45.823Z,101844.94
2023-02-07T02:38:42.644Z,101864.97
2023-02-07T02:41:23.760Z,101869.31
2023-02-07T02:47:11.056Z,101826.72
2023-02-07T02:52:50.646Z,101817.13
2023-02-07T02:56:00.986Z,101813.66
2023-02-07T02:58:44.639Z,101812.81
2023-02-07T03:01:24.986Z,101810.19
2023-02-07T03:04:18.651Z,101795.41
2023-02-07T03:07:00.500Z,101795.41
2023-02-07T03:09:54.310Z,101807.59
2023-02-07T03:12:52.480Z,101792.81
2023-02-07T03:15:33.526Z,101797.16
2023-02-07T03:18:08.327Z,101798.91
2023-02-07T03:21:31.059Z,101795.41
2023-02-07T03:27:30.185Z,101809.34
2023-02-07T03:30:13.489Z,101818.91
2023-02-07T03:32:52.012Z,101813.66
2023-02-07T03:35:29.801Z,101809.31
2023-02-07T03:38:04.264Z,101820.63
2023-02-07T03:40:41.359Z,101814.53
2023-02-07T03:43:21.748Z,101815.44
2023-02-07T03:45:55.475Z,101826.72
2023-02-07T03:48:25.227Z,101819.78
2023-02-07T03:50:58.109Z,101838.03
2023-02-07T03:53:36.388Z,101839.75
2023-02-07T03:56:18.667Z,101831.06
2023-02-07T03:58:59.013Z,101838.88
2023-02-07T04:01:38.330Z,101829.31
2023-02-07T04:04:08.609Z,101833.69
2023-02-07T04:06:39.315Z,101826.69
2023-02-07T04:09:18.677Z,101840.66
2023-02-07T04:14:59.037Z,101835.44
2023-02-07T04:17:46.983Z,101825.00
2023-02-07T04:20:25.205Z,101836.28
2023-02-07T04:22:54.886Z,101822.38
2023-02-07T04:25:37.385Z,101832.78
2023-02-07T04:28:10.945Z,101818.03
2023-02-07T04:30:47.081Z,101832.81
2023-02-07T04:33:29.828Z,101834.53
2023-02-07T04:36:07.185Z,101836.28
2023-02-07T04:38:45.204Z,101826.72
2023-02-07T04:41:19.701Z,101830.19
2023-02-07T04:43:57.617Z,101825.84
2023-02-07T04:46:31.496Z,101848.47
2023-02-07T04:49:10.064Z,101844.97
2023-02-07T04:51:41.131Z,101833.69
2023-02-07T04:54:16.508Z,101851.94
2023-02-07T05:06:19.196Z,101857.13
2023-02-07T05:08:54.166Z,101858.91
2023-02-07T05:14:42.256Z,101864.97
2023-02-07T05:17:22.897Z,101873.66
2023-02-07T05:19:53.200Z,101869.34
2023-02-07T05:22:26.669Z,101877.16
2023-02-07T05:31:00.878Z,101876.25
2023-02-07T05:33:32.573Z,101881.53
2023-02-07T05:36:10.292Z,101875.41
2023-02-07T05:42:15.410Z,101884.97
2023-02-07T05:44:47.048Z,101884.91
2023-02-07T05:50:35.684Z,101895.41
2023-02-07T05:53:28.628Z,101875.41
2023-02-07T05:56:07.807Z,101901.47
2023-02-07T05:58:45.037Z,101897.19
2023-02-07T06:01:29.358Z,101888.44
2023-02-07T06:04:01.003Z,101891.03
2023-02-07T06:06:33.184Z,101886.69
2023-02-07T06:09:05.344Z,101875.41
2023-02-07T06:11:42.581Z,101873.66
2023-02-07T06:14:13.823Z,101878.84
2023-02-07T06:16:54.545Z,101884.97
2023-02-07T06:19:42.092Z,101878.91
2023-02-07T06:22:20.669Z,101891.91
2023-02-07T06:27:57.404Z,101888.44
2023-02-07T06:30:34.723Z,101888.44
2023-02-07T06:33:09.168Z,101892.75
2023-02-07T06:35:47.456Z,101891.91
2023-02-07T06:38:37.194Z,101899.78
2023-02-07T06:41:12.320Z,101902.31
2023-02-07T06:43:46.645Z,101911.03
2023-02-07T06:46:19.512Z,101899.69
2023-02-07T06:49:01.698Z,101905.78
2023-02-07T06:51:42.593Z,101913.66
2023-02-07T07:00:11.572Z,101911.06
2023-02-07T07:02:46.826Z,101909.34
2023-02-07T07:05:20.888Z,101917.16
2023-02-07T07:07:53.616Z,101908.47
2023-02-07T07:10:28.413Z,101914.53
2023-02-07T07:19:21.914Z,101903.25
2023-02-07T07:22:22.181Z,101909.31
2023-02-07T07:24:59.840Z,101891.91
2023-02-07T07:27:33.776Z,101893.69
2023-02-07T07:30:14.081Z,101893.69
2023-02-07T07:32:43.308Z,101898.91
2023-02-07T07:35:21.085Z,101889.34
2023-02-07T07:38:01.110Z,101891.94
2023-02-07T07:44:09.700Z,101888.47
2023-02-07T07:46:43.158Z,101898.03
2023-02-07T07:49:18.148Z,101888.47
2023-02-07T07:51:52.017Z,101898.91
2023-02-07T07:54:39.698Z,101906.75
2023-02-07T07:57:13.582Z,101911.06
2023-02-07T07:59:52.566Z,101918.94
2023-02-07T08:02:28.095Z,101918.94
2023-02-07T08:05:15.966Z,101918.03
2023-02-07T08:07:45.792Z,101907.59
2023-02-07T08:10:29.178Z,101912.81
2023-02-07T08:13:00.045Z,101905.88
2023-02-07T08:15:44.382Z,101897.16
2023-02-07T08:18:34.360Z,101903.25
2023-02-07T08:21:20.210Z,101889.31
2023-02-07T08:24:00.661Z,101906.69
2023-02-07T08:26:31.076Z,101906.72
2023-02-07T08:29:08.044Z,101903.25
2023-02-07T08:31:49.436Z,101905.00
2023-02-07T08:34:40.980Z,101887.59
2023-02-07T08:37:12.171Z,101895.38
2023-02-07T08:39:46.419Z,101908.44
2023-02-07T08:42:32.288Z,101902.38
2023-02-07T08:45:07.357Z,101895.34
2023-02-07T08:47:41.162Z,101887.50
2023-02-07T08:50:18.173Z,101890.09
2023-02-07T09:31:31.040Z,101876.69
2023-02-07T09:37:07.194Z,101896.69
2023-02-07T10:02:13.497Z,101879.00
2023-02-07T11:08:06.000Z,101814.88
2023-02-07T11:10:43.594Z,101812.47
2023-02-07T11:32:09.221Z,101771.72
2023-02-07T11:34:49.914Z,101786.41
2023-02-07T11:43:25.274Z,101784.25
2023-02-07T11:46:04.778Z,101780.88
2023-02-07T11:48:42.641Z,101774.41
2023-02-07T11:51:20.942Z,101793.50
2023-02-07T11:53:55.652Z,101793.28
2023-02-07T11:56:44.558Z,101790.16
2023-02-07T11:59:21.494Z,101784.81
2023-02-07T12:02:02.335Z,101771.00
2023-02-07T12:04:45.906Z,101777.13
2023-02-07T12:07:28.771Z,101771.13
2023-02-07T12:09:59.967Z,101771.78
2023-02-07T12:12:36.020Z,101784.06
2023-02-07T12:15:08.282Z,101778.97
2023-02-07T12:17:41.203Z,101758.19
2023-02-07T12:20:27.402Z,101749.94
2023-02-07T12:25:49.226Z,101761.69
2023-02-07T12:28:27.849Z,101756.38
2023-02-07T12:46:09.446Z,101731.94
2023-02-07T12:49:29.403Z,101727.69
2023-02-07T12:52:07.310Z,101721.75
2023-02-07T12:54:45.995Z,101735.91
2023-02-07T12:57:25.171Z,101721.16
2023-02-07T13:00:11.996Z,101716.50
2023-02-07T13:15:28.556Z,101735.63
2023-02-07T13:18:05.222Z,101723.75
2023-02-07T13:24:01.295Z,101723.16
2023-02-07T13:33:42.025Z,101720.38
2023-02-07T13:36:26.420Z,101717.88
2023-02-07T13:39:05.864Z,101709.84
2023-02-07T13:48:10.121Z,101705.44
2023-02-07T13:51:07.807Z,101711.41
2023-02-07T13:56:56.943Z,101698.03
2023-02-07T14:00:09.597Z,101702.22
2023-02-07T14:02:55.299Z,101703.75
2023-02-07T14:05:31.463Z,101709.75
2023-02-07T14:08:09.592Z,101690.25
2023-02-07T14:10:50.107Z,101704.69
2023-02-07T14:19:57.873Z,101709.38
2023-02-07T14:35:38.758Z,101700.75
2023-02-07T14:41:11.475Z,101707.81
2023-02-07T14:46:53.183Z,101709.84
2023-02-07T14:49:28.179Z,101716.16
2023-02-07T14:55:08.970Z,101707.31
2023-02-07T15:00:48.217Z,101699.84
2023-02-07T15:03:23.503Z,101711.75
2023-02-07T15:09:08.169Z,101697.78
2023-02-07T15:17:46.017Z,101722.13
2023-02-07T15:20:25.300Z,101720.22
2023-02-07T15:23:11.527Z,101733.03
2023-02-07T15:33:21.355Z,101732.47
2023-02-07T15:36:02.076Z,101728.97
2023-02-07T15:44:27.317Z,101738.06
2023-02-07T15:50:27.404Z,101731.72
2023-02-07T15:56:51.732Z,101738.13
2023-02-07T15:59:23.852Z,101747.59
2023-02-07T16:04:55.256Z,101751.44
2023-02-07T16:07:41.216Z,101764.25
2023-02-07T16:10:21.481Z,101766.47
2023-02-07T16:12:58.861Z,101763.97
2023-02-07T16:15:33.031Z,101769.69
2023-02-07T16:18:11.143Z,101765.31
2023-02-07T16:20:45.630Z,101766.22
2023-02-07T16:26:21.923Z,101771.72
2023-02-07T16:39:20.944Z,101783.28
2023-02-07T16:42:02.488Z,101777.38
2023-02-07T16:45:03.702Z,101787.28
2023-02-07T16:47:44.125Z,101784.16
2023-02-07T16:50:26.316Z,101794.75
2023-02-07T16:53:03.589Z,101789.91
2023-02-07T16:55:45.218Z,101784.81
2023-02-07T16:58:28.126Z,101791.94
2023-02-07T17:01:01.651Z,101792.09
2023-02-07T17:03:30.755Z,101807.09
2023-02-07T17:06:02.196Z,101792.31
2023-02-07T17:11:47.060Z,101791.63
2023-02-07T17:14:25.507Z,101794.91
2023-02-07T17:17:04.871Z,101789.00
2023-02-07T17:19:36.148Z,101788.63
2023-02-07T17:22:18.764Z,101791.31
2023-02-07T17:25:10.943Z,101791.78
2023-02-07T17:27:58.203Z,101800.38
2023-02-07T17:31:08.065Z,101794.25
2023-02-07T17:33:51.193Z,101801.19
2023-02-07T17:36:26.262Z,101802.03
2023-02-07T17:39:05.336Z,101812.59
2023-02-07T17:41:47.909Z,101804.19
2023-02-07T17:44:32.363Z,101787.84
2023-02-07T17:47:33.171Z,101800.34
2023-02-07T17:50:12.826Z,101805.50
2023-02-07T17:53:10.655Z,101800.53
2023-02-07T17:56:42.797Z,101818.66
2023-02-07T17:59:29.735Z,101820.69
2023-02-07T18:02:04.239Z,101810.28
2023-02-07T18:04:39.511Z,101799.91
2023-02-07T18:07:12.697Z,101796.47
2023-02-07T18:09:49.408Z,101797.97
2023-02-07T18:12:28.448Z,101815.56
2023-02-07T18:15:10.526Z,101812.88
2023-02-07T18:17:44.757Z,101823.53
2023-02-07T18:20:35.475Z,101821.78
2023-02-07T18:23:16.454Z,101826.06
2023-02-07T18:26:04.265Z,101822.63
2023-02-07T18:28:48.419Z,101824.25
2023-02-07T18:31:28.271Z,101819.94
2023-02-07T18:34:20.938Z,101823.53
2023-02-07T18:37:09.725Z,101825.91
2023-02-07T18:46:23.012Z,101818.19
2023-02-07T18:52:12.175Z,101845.34
2023-02-07T18:55:03.665Z,101826.84
2023-02-07T18:57:37.704Z,101822.69
2023-02-07T19:03:28.096Z,101826.00
2023-02-07T19:06:15.256Z,101856.44
2023-02-07T19:08:57.217Z,101849.78
2023-02-07T19:14:48.834Z,101848.97
2023-02-07T19:17:29.564Z,101870.81
2023-02-07T19:20:13.318Z,101872.38
2023-02-07T19:23:07.017Z,101885.44
2023-02-07T19:25:57.274Z,101863.72
2023-02-07T19:28:39.505Z,101874.94
2023-02-07T19:31:33.127Z,101870.84
2023-02-07T19:34:05.748Z,101877.59
2023-02-07T19:36:48.529Z,101872.41
2023-02-07T19:39:30.116Z,101859.59
2023-02-07T19:42:13.415Z,101880.38
2023-02-07T19:44:57.893Z,101890.97
2023-02-07T19:47:30.479Z,101872.78
2023-02-07T19:54:31.159Z,101889.16
2023-02-07T19:57:23.932Z,101878.56
2023-02-07T20:00:06.370Z,101878.53
2023-02-07T20:02:45.847Z,101887.53
2023-02-07T20:05:19.692Z,101880.47
2023-02-07T20:08:02.388Z,101881.50
2023-02-07T20:10:49.653Z,101885.81
2023-02-07T20:13:27.078Z,101885.78
2023-02-07T20:16:19.353Z,101886.63
2023-02-07T20:18:58.475Z,101898.09
2023-02-07T20:21:33.682Z,101885.50
2023-02-07T20:24:16.929Z,101879.75
2023-02-07T20:26:55.750Z,101891.72
2023-02-07T20:29:34.607Z,101884.16
2023-02-07T20:32:26.027Z,101881.44
2023-02-07T20:35:20.128Z,101886.78
2023-02-07T20:38:10.666Z,101893.63
2023-02-07T20:40:44.509Z,101878.81
2023-02-07T20:43:28.761Z,101890.16
2023-02-07T20:46:14.972Z,101895.56
2023-02-07T20:49:10.515Z,101892.06
2023-02-07T20:51:45.534Z,101897.06
2023-02-07T20:54:31.500Z,101870.00
2023-02-07T20:57:06.532Z,101881.53
2023-02-07T20:59:43.754Z,101909.38
2023-02-07T21:02:19.522Z,101897.34
2023-02-07T21:04:58.297Z,101910.94
2023-02-07T21:07:38.605Z,101898.19
2023-02-07T21:10:11.792Z,101891.94
2023-02-07T21:12:56.327Z,101893.72
2023-02-07T21:15:31.769Z,101899.69
2023-02-07T21:18:13.766Z,101897.22
2023-02-07T21:20:51.771Z,101893.63
2023-02-07T21:23:29.878Z,101899.84
2023-02-07T21:26:06.611Z,101899.03
2023-02-07T21:28:41.033Z,101905.09
2023-02-07T21:31:21.885Z,101907.75
2023-02-07T21:33:56.444Z,101900.66
2023-02-07T21:36:30.500Z,101906.72
2023-02-07T21:39:13.350Z,101917.22
2023-02-07T21:41:50.885Z,101925.94
2023-02-07T21:44:32.571Z,101920.78
2023-02-07T21:47:09.522Z,101924.28
2023-02-07T21:49:38.635Z,101905.94
2023-02-07T21:52:12.323Z,101917.31
2023-02-07T21:54:46.973Z,101918.28
2023-02-07T21:57:24.476Z,101928.66
2023-02-07T22:00:08.404Z,101926.16
2023-02-07T22:02:44.689Z,101925.28
2023-02-07T22:05:16.984Z,101912.22
2023-02-07T22:08:00.372Z,101915.63
2023-02-07T22:10:33.649Z,101920.72
2023-02-07T22:13:04.404Z,101904.34
2023-02-07T22:15:36.629Z,101903.09
2023-02-07T22:18:06.504Z,101913.84
2023-02-07T22:20:55.263Z,101914.69
2023-02-07T22:23:36.241Z,101919.00
2023-02-07T22:26:09.622Z,101918.22
2023-02-07T22:28:41.717Z,101918.31
2023-02-07T22:31:24.604Z,101904.94
2023-02-07T22:34:54.207Z,101920.00
2023-02-07T22:37:31.067Z,101908.81
2023-02-07T22:40:05.430Z,101916.44
2023-02-07T22:42:39.058Z,101920.91
2023-02-07T22:45:25.973Z,101910.50
2023-02-07T22:47:59.130Z,101912.16
2023-02-07T22:50:37.042Z,101916.44
2023-02-07T22:53:08.500Z,101913.09
2023-02-07T22:55:44.400Z,101910.50
2023-02-07T22:58:21.423Z,101914.06
2023-02-07T23:00:51.304Z,101928.97
2023-02-07T23:03:24.418Z,101914.00
2023-02-07T23:05:54.183Z,101908.69
2023-02-07T23:08:24.310Z,101911.50
2023-02-07T23:11:09.886Z,101915.78
2023-02-07T23:13:58.038Z,101917.63
2023-02-07T23:16:43.745Z,101908.78
2023-02-07T23:19:23.833Z,101912.34
2023-02-07T23:21:58.946Z,101926.28
2023-02-07T23:24:29.340Z,101916.78
2023-02-07T23:27:20.887Z,101896.63
2023-02-07T23:29:59.322Z,101900.19
2023-02-07T23:36:23.729Z,101903.72
2023-02-07T23:39:01.141Z,101904.38
2023-02-07T23:41:32.740Z,101912.47
2023-02-07T23:44:14.038Z,101904.47
2023-02-07T23:46:51.699Z,101905.53
2023-02-07T23:49:29.914Z,101903.69
2023-02-07T23:55:04.978Z,101897.63
2023-02-07T23:58:36.372Z,101913.31
